sensor_id;sensor_type;location;lat;lon;timestamp;temperature;humidity
22742;DHT22;11538;48.884;8.696;2023-12-29T00:00:58;10.60;99.90
22742;DHT22;11538;48.884;8.696;2023-12-29T00:03:25;10.50;99.90
22742;DHT22;11538;48.884;8.696;2023-12-29T00:05:52;10.60;99.90
22742;DHT22;11538;48.884;8.696;2023-12-29T00:08:19;10.60;99.90
22742;DHT22;11538;48.884;8.696;2023-12-29T00:10:46;10.60;99.90
22742;DHT22;11538;48.884;8.696;2023-12-29T00:13:13;10.60;99.90
22742;DHT22;11538;48.884;8.696;2023-12-29T00:15:40;10.60;99.90
22742;DHT22;11538;48.884;8.696;2023-12-29T00:18:08;10.70;99.90
22742;DHT22;11538;48.884;8.696;2023-12-29T00:20:35;10.70;99.90
22742;DHT22;11538;48.884;8.696;2023-12-29T00:23:07;10.70;99.90
22742;DHT22;11538;48.884;8.696;2023-12-29T00:25:38;10.70;99.90
22742;DHT22;11538;48.884;8.696;2023-12-29T00:28:05;10.80;99.90
22742;DHT22;11538;48.884;8.696;2023-12-29T00:30:33;10.80;99.90
22742;DHT22;11538;48.884;8.696;2023-12-29T00:33:20;10.80;99.90
22742;DHT22;11538;48.884;8.696;2023-12-29T00:35:47;10.80;99.90
22742;DHT22;11538;48.884;8.696;2023-12-29T00:38:14;10.80;99.90
22742;DHT22;11538;48.884;8.696;2023-12-29T00:40:41;10.80;99.90
22742;DHT22;11538;48.884;8.696;2023-12-29T00:43:08;10.80;99.90
22742;DHT22;11538;48.884;8.696;2023-12-29T00:45:35;10.80;99.90
22742;DHT22;11538;48.884;8.696;2023-12-29T00:48:03;10.80;99.90
22742;DHT22;11538;48.884;8.696;2023-12-29T00:50:31;10.80;99.90
22742;DHT22;11538;48.884;8.696;2023-12-29T00:52:58;10.80;99.90
22742;DHT22;11538;48.884;8.696;2023-12-29T00:55:25;10.80;99.90
22742;DHT22;11538;48.884;8.696;2023-12-29T00:57:52;10.80;99.90
22742;DHT22;11538;48.884;8.696;2023-12-29T01:00:19;10.80;99.90
22742;DHT22;11538;48.884;8.696;2023-12-29T01:02:46;10.70;99.90
22742;DHT22;11538;48.884;8.696;2023-12-29T01:05:16;10.80;99.90
22742;DHT22;11538;48.884;8.696;2023-12-29T01:07:44;10.80;99.90
22742;DHT22;11538;48.884;8.696;2023-12-29T01:10:11;10.70;99.90
22742;DHT22;11538;48.884;8.696;2023-12-29T01:12:38;10.70;99.90
22742;DHT22;11538;48.884;8.696;2023-12-29T01:15:06;10.70;99.90
22742;DHT22;11538;48.884;8.696;2023-12-29T01:17:33;10.70;99.90
22742;DHT22;11538;48.884;8.696;2023-12-29T01:20:00;10.70;99.90
22742;DHT22;11538;48.884;8.696;2023-12-29T01:22:28;10.70;99.90
22742;DHT22;11538;48.884;8.696;2023-12-29T01:24:55;10.70;99.90
22742;DHT22;11538;48.884;8.696;2023-12-29T01:27:25;10.70;99.90
22742;DHT22;11538;48.884;8.696;2023-12-29T01:29:52;10.70;99.90
22742;DHT22;11538;48.884;8.696;2023-12-29T01:32:19;10.70;99.90
22742;DHT22;11538;48.884;8.696;2023-12-29T01:34:46;10.70;99.90
22742;DHT22;11538;48.884;8.696;2023-12-29T01:37:13;10.70;99.90
22742;DHT22;11538;48.884;8.696;2023-12-29T01:39:41;10.70;99.90
22742;DHT22;11538;48.884;8.696;2023-12-29T01:42:08;10.70;99.90
22742;DHT22;11538;48.884;8.696;2023-12-29T01:44:35;10.70;99.90
22742;DHT22;11538;48.884;8.696;2023-12-29T01:47:05;10.70;99.90
22742;DHT22;11538;48.884;8.696;2023-12-29T01:49:40;10.70;99.90
22742;DHT22;11538;48.884;8.696;2023-12-29T01:52:07;10.80;99.90
22742;DHT22;11538;48.884;8.696;2023-12-29T01:54:36;10.70;99.90
22742;DHT22;11538;48.884;8.696;2023-12-29T01:57:06;10.80;99.90
22742;DHT22;11538;48.884;8.696;2023-12-29T01:59:35;10.80;99.90
22742;DHT22;11538;48.884;8.696;2023-12-29T02:02:03;10.80;99.90
22742;DHT22;11538;48.884;8.696;2023-12-29T02:04:31;10.80;99.90
22742;DHT22;11538;48.884;8.696;2023-12-29T02:06:59;10.80;99.90
22742;DHT22;11538;48.884;8.696;2023-12-29T02:09:26;10.80;99.90
22742;DHT22;11538;48.884;8.696;2023-12-29T02:11:54;10.80;99.90
22742;DHT22;11538;48.884;8.696;2023-12-29T02:14:21;10.80;99.90
22742;DHT22;11538;48.884;8.696;2023-12-29T02:19:38;10.90;99.90
22742;DHT22;11538;48.884;8.696;2023-12-29T02:22:11;10.90;99.90
22742;DHT22;11538;48.884;8.696;2023-12-29T02:24:39;10.90;99.90
22742;DHT22;11538;48.884;8.696;2023-12-29T02:30:18;10.90;99.90
22742;DHT22;11538;48.884;8.696;2023-12-29T02:32:50;10.90;99.90
22742;DHT22;11538;48.884;8.696;2023-12-29T02:35:36;10.90;99.90
22742;DHT22;11538;48.884;8.696;2023-12-29T02:38:06;10.90;99.90
22742;DHT22;11538;48.884;8.696;2023-12-29T02:40:33;10.90;99.90
22742;DHT22;11538;48.884;8.696;2023-12-29T02:43:00;10.90;99.90
22742;DHT22;11538;48.884;8.696;2023-12-29T02:45:27;10.90;99.90
22742;DHT22;11538;48.884;8.696;2023-12-29T02:47:54;10.90;99.90
22742;DHT22;11538;48.884;8.696;2023-12-29T02:50:21;10.90;99.90
22742;DHT22;11538;48.884;8.696;2023-12-29T02:52:48;10.90;99.90
22742;DHT22;11538;48.884;8.696;2023-12-29T02:55:15;11.00;99.90
22742;DHT22;11538;48.884;8.696;2023-12-29T02:57:43;11.00;99.90
22742;DHT22;11538;48.884;8.696;2023-12-29T03:00:10;11.00;99.90
22742;DHT22;11538;48.884;8.696;2023-12-29T03:02:37;11.00;99.90
22742;DHT22;11538;48.884;8.696;2023-12-29T03:05:05;11.00;99.90
22742;DHT22;11538;48.884;8.696;2023-12-29T03:07:32;11.00;99.90
22742;DHT22;11538;48.884;8.696;2023-12-29T03:09:59;11.00;99.90
22742;DHT22;11538;48.884;8.696;2023-12-29T03:12:26;11.00;99.90
22742;DHT22;11538;48.884;8.696;2023-12-29T03:14:53;11.00;99.90
22742;DHT22;11538;48.884;8.696;2023-12-29T03:17:20;11.00;99.90
22742;DHT22;11538;48.884;8.696;2023-12-29T03:19:47;11.00;99.90
22742;DHT22;11538;48.884;8.696;2023-12-29T03:22:15;11.00;99.90
22742;DHT22;11538;48.884;8.696;2023-12-29T03:24:42;11.00;99.90
22742;DHT22;11538;48.884;8.696;2023-12-29T03:27:10;11.00;99.90
22742;DHT22;11538;48.884;8.696;2023-12-29T03:29:37;10.90;99.90
22742;DHT22;11538;48.884;8.696;2023-12-29T03:32:04;10.90;99.90
22742;DHT22;11538;48.884;8.696;2023-12-29T03:34:33;10.90;99.90
22742;DHT22;11538;48.884;8.696;2023-12-29T03:37:00;10.90;99.90
22742;DHT22;11538;48.884;8.696;2023-12-29T03:39:27;10.90;99.90
22742;DHT22;11538;48.884;8.696;2023-12-29T03:41:54;10.90;99.90
22742;DHT22;11538;48.884;8.696;2023-12-29T03:44:21;10.90;99.90
22742;DHT22;11538;48.884;8.696;2023-12-29T03:46:48;10.90;99.90
22742;DHT22;11538;48.884;8.696;2023-12-29T03:49:16;10.90;99.90
22742;DHT22;11538;48.884;8.696;2023-12-29T03:51:43;10.90;99.90
22742;DHT22;11538;48.884;8.696;2023-12-29T03:54:10;10.90;99.90
22742;DHT22;11538;48.884;8.696;2023-12-29T03:56:37;10.80;99.90
22742;DHT22;11538;48.884;8.696;2023-12-29T03:59:04;10.70;99.90
22742;DHT22;11538;48.884;8.696;2023-12-29T04:01:33;10.60;99.90
22742;DHT22;11538;48.884;8.696;2023-12-29T04:04:01;10.50;99.90
22742;DHT22;11538;48.884;8.696;2023-12-29T04:06:28;10.40;99.90
22742;DHT22;11538;48.884;8.696;2023-12-29T04:08:55;10.40;99.90
22742;DHT22;11538;48.884;8.696;2023-12-29T04:11:22;10.30;99.90
22742;DHT22;11538;48.884;8.696;2023-12-29T04:13:49;10.30;99.90
22742;DHT22;11538;48.884;8.696;2023-12-29T04:16:16;10.30;99.90
22742;DHT22;11538;48.884;8.696;2023-12-29T04:18:44;10.30;99.90
22742;DHT22;11538;48.884;8.696;2023-12-29T04:21:15;10.30;99.90
22742;DHT22;11538;48.884;8.696;2023-12-29T04:23:42;10.20;99.90
22742;DHT22;11538;48.884;8.696;2023-12-29T04:26:09;10.20;99.90
22742;DHT22;11538;48.884;8.696;2023-12-29T04:28:36;10.20;99.90
22742;DHT22;11538;48.884;8.696;2023-12-29T04:31:03;10.10;99.90
22742;DHT22;11538;48.884;8.696;2023-12-29T04:33:30;10.10;99.90
22742;DHT22;11538;48.884;8.696;2023-12-29T04:35:58;10.10;99.90
22742;DHT22;11538;48.884;8.696;2023-12-29T04:38:25;10.10;99.90
22742;DHT22;11538;48.884;8.696;2023-12-29T04:40:52;10.10;99.90
22742;DHT22;11538;48.884;8.696;2023-12-29T04:43:18;10.10;99.90
22742;DHT22;11538;48.884;8.696;2023-12-29T04:45:45;10.10;99.90
22742;DHT22;11538;48.884;8.696;2023-12-29T04:48:12;10.10;99.90
22742;DHT22;11538;48.884;8.696;2023-12-29T04:50:39;10.00;99.90
22742;DHT22;11538;48.884;8.696;2023-12-29T04:53:06;10.10;99.90
22742;DHT22;11538;48.884;8.696;2023-12-29T04:55:33;10.00;99.90
22742;DHT22;11538;48.884;8.696;2023-12-29T04:58:00;10.00;99.90
22742;DHT22;11538;48.884;8.696;2023-12-29T05:00:27;10.00;99.90
22742;DHT22;11538;48.884;8.696;2023-12-29T05:02:54;10.00;99.90
22742;DHT22;11538;48.884;8.696;2023-12-29T05:05:21;10.00;99.90
22742;DHT22;11538;48.884;8.696;2023-12-29T05:07:47;10.00;99.90
22742;DHT22;11538;48.884;8.696;2023-12-29T05:10:15;10.00;99.90
22742;DHT22;11538;48.884;8.696;2023-12-29T05:12:42;10.00;99.90
22742;DHT22;11538;48.884;8.696;2023-12-29T05:15:09;10.00;99.90
22742;DHT22;11538;48.884;8.696;2023-12-29T05:17:36;10.10;99.90
22742;DHT22;11538;48.884;8.696;2023-12-29T05:20:04;10.00;99.90
22742;DHT22;11538;48.884;8.696;2023-12-29T05:22:31;10.00;99.90
22742;DHT22;11538;48.884;8.696;2023-12-29T05:24:58;9.90;99.90
22742;DHT22;11538;48.884;8.696;2023-12-29T05:27:27;9.90;99.90
22742;DHT22;11538;48.884;8.696;2023-12-29T05:29:54;9.90;99.90
22742;DHT22;11538;48.884;8.696;2023-12-29T05:32:21;9.90;99.90
22742;DHT22;11538;48.884;8.696;2023-12-29T05:34:48;9.90;99.90
22742;DHT22;11538;48.884;8.696;2023-12-29T05:37:15;9.80;99.90
22742;DHT22;11538;48.884;8.696;2023-12-29T05:39:42;9.80;99.90
22742;DHT22;11538;48.884;8.696;2023-12-29T05:42:09;9.80;99.90
22742;DHT22;11538;48.884;8.696;2023-12-29T05:44:37;9.80;99.90
22742;DHT22;11538;48.884;8.696;2023-12-29T05:47:05;9.80;99.90
22742;DHT22;11538;48.884;8.696;2023-12-29T05:49:32;9.80;99.90
22742;DHT22;11538;48.884;8.696;2023-12-29T05:52:05;9.80;99.90
22742;DHT22;11538;48.884;8.696;2023-12-29T05:54:33;9.70;99.90
22742;DHT22;11538;48.884;8.696;2023-12-29T05:57:01;9.70;99.90
22742;DHT22;11538;48.884;8.696;2023-12-29T05:59:28;9.70;99.90
22742;DHT22;11538;48.884;8.696;2023-12-29T06:01:55;9.70;99.90
22742;DHT22;11538;48.884;8.696;2023-12-29T06:04:23;9.70;99.90
22742;DHT22;11538;48.884;8.696;2023-12-29T06:06:50;9.70;99.90
22742;DHT22;11538;48.884;8.696;2023-12-29T06:09:17;9.70;99.90
22742;DHT22;11538;48.884;8.696;2023-12-29T06:11:44;9.70;99.90
22742;DHT22;11538;48.884;8.696;2023-12-29T06:14:11;9.80;99.90
22742;DHT22;11538;48.884;8.696;2023-12-29T06:16:38;9.80;99.90
22742;DHT22;11538;48.884;8.696;2023-12-29T06:19:05;9.80;99.90
22742;DHT22;11538;48.884;8.696;2023-12-29T06:21:32;9.80;99.90
22742;DHT22;11538;48.884;8.696;2023-12-29T06:23:59;9.80;99.90
22742;DHT22;11538;48.884;8.696;2023-12-29T06:26:26;9.90;99.90
22742;DHT22;11538;48.884;8.696;2023-12-29T06:28:53;9.90;99.90
22742;DHT22;11538;48.884;8.696;2023-12-29T06:31:20;10.00;99.90
22742;DHT22;11538;48.884;8.696;2023-12-29T06:33:47;10.00;99.90
22742;DHT22;11538;48.884;8.696;2023-12-29T06:36:14;10.10;99.90
22742;DHT22;11538;48.884;8.696;2023-12-29T06:38:41;10.10;99.90
22742;DHT22;11538;48.884;8.696;2023-12-29T06:41:12;10.10;99.90
22742;DHT22;11538;48.884;8.696;2023-12-29T06:43:40;10.20;99.90
22742;DHT22;11538;48.884;8.696;2023-12-29T06:46:07;10.20;99.90
22742;DHT22;11538;48.884;8.696;2023-12-29T06:48:36;10.20;99.90
22742;DHT22;11538;48.884;8.696;2023-12-29T06:51:03;10.30;99.90
22742;DHT22;11538;48.884;8.696;2023-12-29T06:53:30;10.30;99.90
22742;DHT22;11538;48.884;8.696;2023-12-29T06:55:57;10.30;99.90
22742;DHT22;11538;48.884;8.696;2023-12-29T06:58:24;10.40;99.90
22742;DHT22;11538;48.884;8.696;2023-12-29T07:00:51;10.40;99.90
22742;DHT22;11538;48.884;8.696;2023-12-29T07:03:18;10.40;99.90
22742;DHT22;11538;48.884;8.696;2023-12-29T07:05:45;10.50;99.90
22742;DHT22;11538;48.884;8.696;2023-12-29T07:08:15;10.50;99.90
22742;DHT22;11538;48.884;8.696;2023-12-29T07:10:42;10.50;99.90
22742;DHT22;11538;48.884;8.696;2023-12-29T07:13:09;10.50;99.90
22742;DHT22;11538;48.884;8.696;2023-12-29T07:15:36;10.50;99.90
22742;DHT22;11538;48.884;8.696;2023-12-29T07:18:04;10.60;99.90
22742;DHT22;11538;48.884;8.696;2023-12-29T07:20:32;10.60;99.90
22742;DHT22;11538;48.884;8.696;2023-12-29T07:23:00;10.60;99.90
22742;DHT22;11538;48.884;8.696;2023-12-29T07:25:28;10.60;99.90
22742;DHT22;11538;48.884;8.696;2023-12-29T07:27:55;10.60;99.90
22742;DHT22;11538;48.884;8.696;2023-12-29T07:30:23;10.70;99.90
22742;DHT22;11538;48.884;8.696;2023-12-29T07:32:50;10.60;99.90
22742;DHT22;11538;48.884;8.696;2023-12-29T07:35:18;10.70;99.90
22742;DHT22;11538;48.884;8.696;2023-12-29T07:37:46;10.70;99.90
22742;DHT22;11538;48.884;8.696;2023-12-29T07:40:14;10.70;99.90
22742;DHT22;11538;48.884;8.696;2023-12-29T07:42:42;10.70;99.90
22742;DHT22;11538;48.884;8.696;2023-12-29T07:45:11;10.70;99.90
22742;DHT22;11538;48.884;8.696;2023-12-29T07:47:38;10.80;99.90
22742;DHT22;11538;48.884;8.696;2023-12-29T07:50:05;10.80;99.90
22742;DHT22;11538;48.884;8.696;2023-12-29T07:52:33;10.80;99.90
22742;DHT22;11538;48.884;8.696;2023-12-29T07:55:00;10.80;99.90
22742;DHT22;11538;48.884;8.696;2023-12-29T07:57:27;10.80;99.90
22742;DHT22;11538;48.884;8.696;2023-12-29T07:59:54;10.80;99.90
22742;DHT22;11538;48.884;8.696;2023-12-29T08:02:21;10.80;99.90
22742;DHT22;11538;48.884;8.696;2023-12-29T08:04:47;10.80;99.90
22742;DHT22;11538;48.884;8.696;2023-12-29T08:07:15;10.80;99.90
22742;DHT22;11538;48.884;8.696;2023-12-29T08:09:42;10.80;99.90
22742;DHT22;11538;48.884;8.696;2023-12-29T08:12:10;10.80;99.90
22742;DHT22;11538;48.884;8.696;2023-12-29T08:14:37;10.80;99.90
22742;DHT22;11538;48.884;8.696;2023-12-29T08:17:04;10.80;99.90
22742;DHT22;11538;48.884;8.696;2023-12-29T08:19:31;10.90;99.90
22742;DHT22;11538;48.884;8.696;2023-12-29T08:21:58;10.90;99.90
22742;DHT22;11538;48.884;8.696;2023-12-29T08:24:25;10.90;99.90
22742;DHT22;11538;48.884;8.696;2023-12-29T08:26:52;10.90;99.90
22742;DHT22;11538;48.884;8.696;2023-12-29T08:29:19;10.90;99.90
22742;DHT22;11538;48.884;8.696;2023-12-29T08:31:46;11.00;99.90
22742;DHT22;11538;48.884;8.696;2023-12-29T08:34:13;11.00;99.90
22742;DHT22;11538;48.884;8.696;2023-12-29T08:36:42;11.10;99.90
22742;DHT22;11538;48.884;8.696;2023-12-29T08:39:09;11.10;99.90
22742;DHT22;11538;48.884;8.696;2023-12-29T08:41:36;11.10;99.90
22742;DHT22;11538;48.884;8.696;2023-12-29T08:44:03;11.10;99.90
22742;DHT22;11538;48.884;8.696;2023-12-29T08:46:30;11.10;99.90
22742;DHT22;11538;48.884;8.696;2023-12-29T08:48:57;11.20;99.90
22742;DHT22;11538;48.884;8.696;2023-12-29T08:51:24;11.20;99.90
22742;DHT22;11538;48.884;8.696;2023-12-29T08:53:51;11.20;99.90
22742;DHT22;11538;48.884;8.696;2023-12-29T08:56:18;11.20;99.90
22742;DHT22;11538;48.884;8.696;2023-12-29T08:58:45;11.20;99.90
22742;DHT22;11538;48.884;8.696;2023-12-29T09:01:12;11.20;99.90
22742;DHT22;11538;48.884;8.696;2023-12-29T09:03:39;11.20;99.90
22742;DHT22;11538;48.884;8.696;2023-12-29T09:06:06;11.20;99.90
22742;DHT22;11538;48.884;8.696;2023-12-29T09:08:35;11.20;99.90
22742;DHT22;11538;48.884;8.696;2023-12-29T09:11:02;11.20;99.90
22742;DHT22;11538;48.884;8.696;2023-12-29T09:13:30;11.20;99.90
22742;DHT22;11538;48.884;8.696;2023-12-29T09:15:58;11.20;99.90
22742;DHT22;11538;48.884;8.696;2023-12-29T09:18:26;11.30;99.90
22742;DHT22;11538;48.884;8.696;2023-12-29T09:20:53;11.30;99.90
22742;DHT22;11538;48.884;8.696;2023-12-29T09:23:20;11.30;99.90
22742;DHT22;11538;48.884;8.696;2023-12-29T09:25:47;11.30;99.90
22742;DHT22;11538;48.884;8.696;2023-12-29T09:28:14;11.30;99.90
22742;DHT22;11538;48.884;8.696;2023-12-29T09:30:43;11.40;99.90
22742;DHT22;11538;48.884;8.696;2023-12-29T09:33:11;11.40;99.90
22742;DHT22;11538;48.884;8.696;2023-12-29T09:35:39;11.50;99.90
22742;DHT22;11538;48.884;8.696;2023-12-29T09:38:06;11.50;99.90
22742;DHT22;11538;48.884;8.696;2023-12-29T09:40:33;11.60;99.90
22742;DHT22;11538;48.884;8.696;2023-12-29T09:43:01;11.60;99.90
22742;DHT22;11538;48.884;8.696;2023-12-29T09:45:30;11.60;99.90
22742;DHT22;11538;48.884;8.696;2023-12-29T09:48:01;11.60;99.90
22742;DHT22;11538;48.884;8.696;2023-12-29T09:50:30;11.70;99.90
22742;DHT22;11538;48.884;8.696;2023-12-29T09:52:59;11.70;99.90
22742;DHT22;11538;48.884;8.696;2023-12-29T09:55:28;11.70;99.90
22742;DHT22;11538;48.884;8.696;2023-12-29T09:57:59;11.70;99.90
22742;DHT22;11538;48.884;8.696;2023-12-29T10:00:27;11.70;99.90
22742;DHT22;11538;48.884;8.696;2023-12-29T10:02:55;11.70;99.90
22742;DHT22;11538;48.884;8.696;2023-12-29T10:05:23;11.70;99.90
22742;DHT22;11538;48.884;8.696;2023-12-29T10:07:53;11.70;99.90
22742;DHT22;11538;48.884;8.696;2023-12-29T10:10:20;11.70;99.90
22742;DHT22;11538;48.884;8.696;2023-12-29T10:12:51;11.70;99.90
22742;DHT22;11538;48.884;8.696;2023-12-29T10:18:35;11.80;99.90
22742;DHT22;11538;48.884;8.696;2023-12-29T10:21:17;11.90;99.90
22742;DHT22;11538;48.884;8.696;2023-12-29T10:24:07;12.00;99.90
22742;DHT22;11538;48.884;8.696;2023-12-29T10:26:40;12.00;99.90
22742;DHT22;11538;48.884;8.696;2023-12-29T10:29:08;12.10;99.90
22742;DHT22;11538;48.884;8.696;2023-12-29T10:31:35;12.20;99.90
22742;DHT22;11538;48.884;8.696;2023-12-29T10:34:34;12.20;99.90
22742;DHT22;11538;48.884;8.696;2023-12-29T10:37:02;12.30;99.90
22742;DHT22;11538;48.884;8.696;2023-12-29T10:39:30;12.40;99.90
22742;DHT22;11538;48.884;8.696;2023-12-29T10:42:07;12.40;99.90
22742;DHT22;11538;48.884;8.696;2023-12-29T10:44:36;12.50;99.90
22742;DHT22;11538;48.884;8.696;2023-12-29T10:47:10;12.50;99.90
22742;DHT22;11538;48.884;8.696;2023-12-29T10:49:40;12.60;99.90
22742;DHT22;11538;48.884;8.696;2023-12-29T10:52:15;12.60;99.90
22742;DHT22;11538;48.884;8.696;2023-12-29T10:54:43;12.70;99.90
22742;DHT22;11538;48.884;8.696;2023-12-29T10:57:12;12.70;99.90
22742;DHT22;11538;48.884;8.696;2023-12-29T10:59:40;12.80;99.90
22742;DHT22;11538;48.884;8.696;2023-12-29T11:02:07;12.80;99.90
22742;DHT22;11538;48.884;8.696;2023-12-29T11:04:41;12.80;99.90
22742;DHT22;11538;48.884;8.696;2023-12-29T11:07:12;12.80;99.90
22742;DHT22;11538;48.884;8.696;2023-12-29T11:09:40;12.90;99.90
22742;DHT22;11538;48.884;8.696;2023-12-29T11:12:09;12.90;99.90
22742;DHT22;11538;48.884;8.696;2023-12-29T11:14:41;13.00;99.90
22742;DHT22;11538;48.884;8.696;2023-12-29T11:17:12;13.00;99.90
22742;DHT22;11538;48.884;8.696;2023-12-29T11:19:42;13.10;99.90
22742;DHT22;11538;48.884;8.696;2023-12-29T11:22:12;13.20;99.90
22742;DHT22;11538;48.884;8.696;2023-12-29T11:24:41;13.30;99.90
22742;DHT22;11538;48.884;8.696;2023-12-29T11:27:10;13.40;99.90
22742;DHT22;11538;48.884;8.696;2023-12-29T11:29:41;13.40;99.90
22742;DHT22;11538;48.884;8.696;2023-12-29T11:32:14;13.40;99.90
22742;DHT22;11538;48.884;8.696;2023-12-29T11:34:52;13.40;99.90
22742;DHT22;11538;48.884;8.696;2023-12-29T11:37:56;13.40;99.90
22742;DHT22;11538;48.884;8.696;2023-12-29T11:40:52;13.30;99.90
22742;DHT22;11538;48.884;8.696;2023-12-29T11:43:28;13.40;99.90
22742;DHT22;11538;48.884;8.696;2023-12-29T11:45:55;13.40;99.90
22742;DHT22;11538;48.884;8.696;2023-12-29T11:48:57;13.50;99.90
22742;DHT22;11538;48.884;8.696;2023-12-29T11:51:47;13.70;99.90
22742;DHT22;11538;48.884;8.696;2023-12-29T11:54:24;13.70;99.90
22742;DHT22;11538;48.884;8.696;2023-12-29T11:56:53;13.80;99.90
22742;DHT22;11538;48.884;8.696;2023-12-29T11:59:25;13.90;99.90
22742;DHT22;11538;48.884;8.696;2023-12-29T12:02:00;13.90;99.90
22742;DHT22;11538;48.884;8.696;2023-12-29T12:04:38;14.00;99.90
22742;DHT22;11538;48.884;8.696;2023-12-29T12:12:47;14.00;99.90
22742;DHT22;11538;48.884;8.696;2023-12-29T12:20:24;13.90;99.90
22742;DHT22;11538;48.884;8.696;2023-12-29T12:23:00;13.90;99.90
22742;DHT22;11538;48.884;8.696;2023-12-29T12:25:46;13.90;99.90
22742;DHT22;11538;48.884;8.696;2023-12-29T12:28:16;14.00;99.90
22742;DHT22;11538;48.884;8.696;2023-12-29T12:30:43;14.00;99.90
22742;DHT22;11538;48.884;8.696;2023-12-29T12:33:14;14.00;99.90
22742;DHT22;11538;48.884;8.696;2023-12-29T12:35:41;14.00;99.90
22742;DHT22;11538;48.884;8.696;2023-12-29T12:38:13;14.10;99.90
22742;DHT22;11538;48.884;8.696;2023-12-29T12:40:42;14.10;99.90
22742;DHT22;11538;48.884;8.696;2023-12-29T12:43:13;14.10;99.90
22742;DHT22;11538;48.884;8.696;2023-12-29T12:48:22;14.10;99.90
22742;DHT22;11538;48.884;8.696;2023-12-29T12:50:55;14.10;99.90
22742;DHT22;11538;48.884;8.696;2023-12-29T12:53:23;14.00;99.90
22742;DHT22;11538;48.884;8.696;2023-12-29T12:55:51;14.00;99.90
22742;DHT22;11538;48.884;8.696;2023-12-29T12:58:21;13.90;99.90
22742;DHT22;11538;48.884;8.696;2023-12-29T13:00:48;13.80;99.90
22742;DHT22;11538;48.884;8.696;2023-12-29T13:03:20;13.70;99.90
22742;DHT22;11538;48.884;8.696;2023-12-29T13:05:48;13.70;99.90
22742;DHT22;11538;48.884;8.696;2023-12-29T13:08:17;13.60;99.90
22742;DHT22;11538;48.884;8.696;2023-12-29T13:10:59;13.60;99.90
22742;DHT22;11538;48.884;8.696;2023-12-29T13:13:41;13.50;99.90
22742;DHT22;11538;48.884;8.696;2023-12-29T13:16:10;13.40;99.90
22742;DHT22;11538;48.884;8.696;2023-12-29T13:18:37;13.30;99.90
22742;DHT22;11538;48.884;8.696;2023-12-29T13:21:04;13.30;99.90
22742;DHT22;11538;48.884;8.696;2023-12-29T13:23:32;13.20;99.90
22742;DHT22;11538;48.884;8.696;2023-12-29T13:26:04;13.10;99.90
22742;DHT22;11538;48.884;8.696;2023-12-29T13:28:35;13.10;99.90
22742;DHT22;11538;48.884;8.696;2023-12-29T13:31:08;13.00;99.90
22742;DHT22;11538;48.884;8.696;2023-12-29T13:34:01;13.00;99.90
22742;DHT22;11538;48.884;8.696;2023-12-29T13:39:35;12.80;99.90
22742;DHT22;11538;48.884;8.696;2023-12-29T13:42:07;12.80;99.90
22742;DHT22;11538;48.884;8.696;2023-12-29T13:44:38;12.70;99.90
22742;DHT22;11538;48.884;8.696;2023-12-29T13:47:08;12.70;99.90
22742;DHT22;11538;48.884;8.696;2023-12-29T13:49:37;12.60;99.90
22742;DHT22;11538;48.884;8.696;2023-12-29T13:52:05;12.70;99.90
22742;DHT22;11538;48.884;8.696;2023-12-29T13:54:41;12.60;99.90
22742;DHT22;11538;48.884;8.696;2023-12-29T13:57:10;12.60;99.90
22742;DHT22;11538;48.884;8.696;2023-12-29T13:59:39;12.60;99.90
22742;DHT22;11538;48.884;8.696;2023-12-29T14:02:39;12.50;99.90
22742;DHT22;11538;48.884;8.696;2023-12-29T14:08:23;12.40;99.90
22742;DHT22;11538;48.884;8.696;2023-12-29T14:10:52;12.40;99.90
22742;DHT22;11538;48.884;8.696;2023-12-29T14:13:20;12.40;99.90
22742;DHT22;11538;48.884;8.696;2023-12-29T14:15:47;12.40;99.90
22742;DHT22;11538;48.884;8.696;2023-12-29T14:18:24;12.40;99.90
22742;DHT22;11538;48.884;8.696;2023-12-29T14:20:53;12.40;99.90
22742;DHT22;11538;48.884;8.696;2023-12-29T14:23:20;12.40;99.90
22742;DHT22;11538;48.884;8.696;2023-12-29T14:25:46;12.40;99.90
22742;DHT22;11538;48.884;8.696;2023-12-29T14:28:19;12.40;99.90
22742;DHT22;11538;48.884;8.696;2023-12-29T14:31:01;12.40;99.90
22742;DHT22;11538;48.884;8.696;2023-12-29T14:33:29;12.40;99.90
22742;DHT22;11538;48.884;8.696;2023-12-29T14:35:56;12.30;99.90
22742;DHT22;11538;48.884;8.696;2023-12-29T14:38:23;12.40;99.90
22742;DHT22;11538;48.884;8.696;2023-12-29T14:40:51;12.30;99.90
22742;DHT22;11538;48.884;8.696;2023-12-29T14:43:18;12.30;99.90
22742;DHT22;11538;48.884;8.696;2023-12-29T14:45:45;12.30;99.90
22742;DHT22;11538;48.884;8.696;2023-12-29T14:48:12;12.40;99.90
22742;DHT22;11538;48.884;8.696;2023-12-29T14:50:39;12.40;99.90
22742;DHT22;11538;48.884;8.696;2023-12-29T14:53:11;12.30;99.90
22742;DHT22;11538;48.884;8.696;2023-12-29T14:55:38;12.30;99.90
22742;DHT22;11538;48.884;8.696;2023-12-29T14:58:05;12.30;99.90
22742;DHT22;11538;48.884;8.696;2023-12-29T15:00:32;12.30;99.90
22742;DHT22;11538;48.884;8.696;2023-12-29T15:02:59;12.30;99.90
22742;DHT22;11538;48.884;8.696;2023-12-29T15:05:26;12.30;99.90
22742;DHT22;11538;48.884;8.696;2023-12-29T15:07:53;12.30;99.90
22742;DHT22;11538;48.884;8.696;2023-12-29T15:10:20;12.30;99.90
22742;DHT22;11538;48.884;8.696;2023-12-29T15:12:49;12.30;99.90
22742;DHT22;11538;48.884;8.696;2023-12-29T15:15:16;12.30;99.90
22742;DHT22;11538;48.884;8.696;2023-12-29T15:17:43;12.20;99.90
22742;DHT22;11538;48.884;8.696;2023-12-29T15:20:10;12.20;99.90
22742;DHT22;11538;48.884;8.696;2023-12-29T15:22:37;12.20;99.90
22742;DHT22;11538;48.884;8.696;2023-12-29T15:25:05;12.20;99.90
22742;DHT22;11538;48.884;8.696;2023-12-29T15:27:33;12.20;99.90
22742;DHT22;11538;48.884;8.696;2023-12-29T15:30:00;12.10;99.90
22742;DHT22;11538;48.884;8.696;2023-12-29T15:32:27;12.10;99.90
22742;DHT22;11538;48.884;8.696;2023-12-29T15:34:54;12.10;99.90
22742;DHT22;11538;48.884;8.696;2023-12-29T15:37:21;12.10;99.90
22742;DHT22;11538;48.884;8.696;2023-12-29T15:39:48;12.10;99.90
22742;DHT22;11538;48.884;8.696;2023-12-29T15:42:15;12.00;99.90
22742;DHT22;11538;48.884;8.696;2023-12-29T15:44:42;12.10;99.90
22742;DHT22;11538;48.884;8.696;2023-12-29T15:47:09;12.10;99.90
22742;DHT22;11538;48.884;8.696;2023-12-29T15:49:39;12.00;99.90
22742;DHT22;11538;48.884;8.696;2023-12-29T15:52:08;12.00;99.90
22742;DHT22;11538;48.884;8.696;2023-12-29T15:54:36;12.00;99.90
22742;DHT22;11538;48.884;8.696;2023-12-29T15:57:06;12.00;99.90
22742;DHT22;11538;48.884;8.696;2023-12-29T15:59:35;12.00;99.90
22742;DHT22;11538;48.884;8.696;2023-12-29T16:02:02;12.00;99.90
22742;DHT22;11538;48.884;8.696;2023-12-29T16:04:33;11.90;99.90
22742;DHT22;11538;48.884;8.696;2023-12-29T16:07:00;11.90;99.90
22742;DHT22;11538;48.884;8.696;2023-12-29T16:09:27;11.90;99.90
22742;DHT22;11538;48.884;8.696;2023-12-29T16:11:54;11.90;99.90